createdAt,value
2023-04-29T00:00:44.892Z,94785.00
2023-04-29T00:01:30.459Z,94787.00
2023-04-29T00:02:31.954Z,94789.00
2023-04-29T00:03:30.631Z,94791.00
2023-04-29T00:04:30.631Z,94791.00
2023-04-29T00:05:30.600Z,94791.00
2023-04-29T00:06:30.555Z,94791.00
2023-04-29T00:07:30.530Z,94789.00
2023-04-29T00:08:30.521Z,94785.00
2023-04-29T00:09:30.614Z,94783.00
2023-04-29T00:10:30.525Z,94781.00
2023-04-29T00:11:30.574Z,94780.00
2023-04-29T00:12:30.597Z,94781.00
2023-04-29T00:13:30.614Z,94781.00
2023-04-29T00:14:30.566Z,94783.00
2023-04-29T00:15:30.572Z,94781.00
2023-04-29T00:16:30.701Z,94783.00
2023-04-29T00:17:30.617Z,94787.00
2023-04-29T00:18:30.768Z,94789.00
2023-04-29T00:19:30.654Z,94787.00
2023-04-29T00:20:30.669Z,94783.00
2023-04-29T00:21:30.673Z,94776.00
2023-04-29T00:22:30.673Z,94776.00
2023-04-29T00:23:30.687Z,94780.00
2023-04-29T00:24:30.685Z,94780.00
2023-04-29T00:25:30.739Z,94780.00
2023-04-29T00:26:30.748Z,94781.00
2023-04-29T00:27:30.751Z,94785.00
2023-04-29T00:28:30.770Z,94783.00
2023-04-29T00:29:30.921Z,94781.00
2023-04-29T00:30:30.781Z,94781.00
2023-04-29T00:31:30.892Z,94787.00
2023-04-29T00:32:30.805Z,94789.00
2023-04-29T00:33:30.842Z,94795.00
2023-04-29T00:34:30.798Z,94801.00
2023-04-29T00:35:30.857Z,94805.00
2023-04-29T00:36:30.867Z,94803.00
2023-04-29T00:37:30.893Z,94803.00
2023-04-29T00:38:30.875Z,94795.00
2023-04-29T00:39:30.901Z,94789.00
2023-04-29T00:40:30.922Z,94787.00
2023-04-29T00:41:30.960Z,94787.00
2023-04-29T00:42:30.950Z,94791.00
2023-04-29T00:43:30.957Z,94795.00
2023-04-29T00:44:30.992Z,94797.00
2023-04-29T00:45:31.053Z,94797.00
2023-04-29T00:46:31.025Z,94795.00
2023-04-29T00:47:31.063Z,94791.00
2023-04-29T00:48:31.057Z,94787.00
2023-04-29T00:49:31.053Z,94783.00
2023-04-29T00:50:31.120Z,94783.00
2023-04-29T00:51:31.119Z,94783.00
2023-04-29T00:52:31.118Z,94783.00
2023-04-29T00:53:31.205Z,94787.00
2023-04-29T00:54:31.159Z,94785.00
2023-04-29T00:55:31.216Z,94785.00
2023-04-29T00:56:31.204Z,94783.00
2023-04-29T00:57:31.225Z,94783.00
2023-04-29T00:58:31.261Z,94783.00
2023-04-29T00:59:31.284Z,94785.00
2023-04-29T01:00:31.283Z,94787.00
2023-04-29T01:01:31.320Z,94789.00
2023-04-29T01:02:31.344Z,94791.00
2023-04-29T01:03:31.611Z,94789.00
2023-04-29T01:04:31.334Z,94791.00
2023-04-29T01:05:31.380Z,94789.00
2023-04-29T01:06:31.381Z,94791.00
2023-04-29T01:07:31.392Z,94791.00
2023-04-29T01:08:31.400Z,94791.00
2023-04-29T01:09:31.405Z,94789.00
2023-04-29T01:10:31.405Z,94783.00
2023-04-29T01:11:31.446Z,94778.00
2023-04-29T01:12:31.454Z,94778.00
2023-04-29T01:13:31.462Z,94772.00
2023-04-29T01:14:31.546Z,94766.00
2023-04-29T01:15:31.508Z,94760.00
2023-04-29T01:16:31.674Z,94754.00
2023-04-29T01:17:31.585Z,94752.00
2023-04-29T01:18:31.522Z,94754.00
2023-04-29T01:19:31.563Z,94754.00
2023-04-29T01:20:31.585Z,94758.00
2023-04-29T01:21:31.645Z,94762.00
2023-04-29T01:22:31.638Z,94764.00
2023-04-29T01:23:31.642Z,94764.00
2023-04-29T01:24:31.669Z,94766.00
2023-04-29T01:25:31.669Z,94770.00
2023-04-29T01:26:31.649Z,94770.00
2023-04-29T01:27:31.746Z,94768.00
2023-04-29T01:28:31.745Z,94764.00
2023-04-29T01:29:31.697Z,94764.00
2023-04-29T01:30:31.762Z,94760.00
2023-04-29T01:31:31.791Z,94760.00
2023-04-29T01:32:33.996Z,94760.00
2023-04-29T01:33:31.788Z,94760.00
2023-04-29T01:34:31.730Z,94758.00
2023-04-29T01:35:31.737Z,94758.00
2023-04-29T01:36:31.786Z,94754.00
2023-04-29T01:37:31.743Z,94750.00
2023-04-29T01:38:31.739Z,94746.00
2023-04-29T01:39:31.754Z,94744.00
2023-04-29T01:40:31.728Z,94744.00
2023-04-29T01:41:31.729Z,94744.00
2023-04-29T01:42:31.747Z,94748.00
2023-04-29T01:43:31.699Z,94750.00
2023-04-29T01:44:31.694Z,94752.00
2023-04-29T01:45:31.705Z,94750.00
2023-04-29T01:46:31.736Z,94748.00
2023-04-29T01:47:31.682Z,94744.00
2023-04-29T01:48:31.673Z,94744.00
2023-04-29T01:49:31.685Z,94746.00
2023-04-29T01:50:31.690Z,94746.00
2023-04-29T01:51:31.611Z,94744.00
2023-04-29T01:52:31.624Z,94742.00
2023-04-29T01:53:31.609Z,94738.00
2023-04-29T01:54:31.596Z,94738.00
2023-04-29T01:55:31.643Z,94738.00
2023-04-29T01:56:31.629Z,94738.00
2023-04-29T01:57:31.627Z,94740.00
2023-04-29T01:58:31.632Z,94738.00
2023-04-29T01:59:31.876Z,94740.00
2023-04-29T02:00:31.598Z,94746.00
2023-04-29T02:01:31.559Z,94748.00
2023-04-29T02:02:31.650Z,94750.00
2023-04-29T02:03:31.706Z,94750.00
2023-04-29T02:04:31.576Z,94752.00
2023-04-29T02:05:31.594Z,94750.00
2023-04-29T02:06:31.527Z,94748.00
2023-04-29T02:07:31.518Z,94744.00
2023-04-29T02:08:31.559Z,94742.00
2023-04-29T02:09:31.515Z,94736.00
2023-04-29T02:10:31.474Z,94738.00
2023-04-29T02:11:31.514Z,94736.00
2023-04-29T02:12:31.477Z,94736.00
2023-04-29T02:13:31.479Z,94734.00
2023-04-29T02:14:31.501Z,94728.00
2023-04-29T02:15:31.481Z,94725.00
2023-04-29T02:16:31.558Z,94723.00
2023-04-29T02:17:31.512Z,94723.00
2023-04-29T02:18:31.484Z,94725.00
2023-04-29T02:19:31.453Z,94726.00
2023-04-29T02:20:31.451Z,94725.00
2023-04-29T02:21:31.440Z,94721.00
2023-04-29T02:22:31.435Z,94719.00
2023-04-29T02:23:31.405Z,94715.00
2023-04-29T02:24:31.420Z,94711.00
2023-04-29T02:25:31.390Z,94711.00
2023-04-29T02:26:31.408Z,94717.00
2023-04-29T02:27:31.430Z,94726.00
2023-04-29T02:28:31.392Z,94728.00
2023-04-29T02:29:31.365Z,94728.00
2023-04-29T02:30:31.378Z,94728.00
2023-04-29T02:31:31.396Z,94725.00
2023-04-29T02:32:31.414Z,94726.00
2023-04-29T02:33:31.369Z,94725.00
2023-04-29T02:34:31.389Z,94721.00
2023-04-29T02:35:31.363Z,94723.00
2023-04-29T02:36:31.322Z,94719.00
2023-04-29T02:37:31.326Z,94717.00
2023-04-29T02:38:31.321Z,94717.00
2023-04-29T02:39:31.340Z,94719.00
2023-04-29T02:40:31.298Z,94721.00
2023-04-29T02:41:31.309Z,94725.00
2023-04-29T02:42:31.276Z,94728.00
2023-04-29T02:43:31.274Z,94734.00
2023-04-29T02:44:31.287Z,94732.00
2023-04-29T02:45:31.310Z,94736.00
2023-04-29T02:46:31.252Z,94734.00
2023-04-29T02:47:31.281Z,94732.00
2023-04-29T02:48:31.231Z,94730.00
2023-04-29T02:49:31.285Z,94726.00
2023-04-29T02:50:31.212Z,94730.00
2023-04-29T02:51:31.257Z,94726.00
2023-04-29T02:52:31.266Z,94726.00
2023-04-29T02:53:31.199Z,94725.00
2023-04-29T02:54:31.212Z,94723.00
2023-04-29T02:55:31.217Z,94721.00
2023-04-29T02:56:31.222Z,94723.00
2023-04-29T02:57:31.249Z,94726.00
2023-04-29T02:58:31.185Z,94732.00
2023-04-29T02:59:31.172Z,94740.00
2023-04-29T03:00:31.178Z,94740.00
2023-04-29T03:01:31.216Z,94746.00
2023-04-29T03:02:31.265Z,94744.00
2023-04-29T03:03:31.269Z,94744.00
2023-04-29T03:04:31.160Z,94738.00
2023-04-29T03:05:31.101Z,94736.00
2023-04-29T03:06:31.092Z,94736.00
2023-04-29T03:07:31.130Z,94734.00
2023-04-29T03:08:31.088Z,94738.00
2023-04-29T03:09:31.093Z,94740.00
2023-04-29T03:10:31.055Z,94740.00
2023-04-29T03:11:31.531Z,94742.00
2023-04-29T03:12:31.129Z,94742.00
2023-04-29T03:13:31.135Z,94740.00
2023-04-29T03:14:31.145Z,94740.00
2023-04-29T03:15:31.166Z,94740.00
2023-04-29T03:16:31.240Z,94738.00
2023-04-29T03:17:31.291Z,94738.00
2023-04-29T03:18:31.234Z,94738.00
2023-04-29T03:19:31.267Z,94734.00
2023-04-29T03:20:31.336Z,94732.00
2023-04-29T03:21:31.323Z,94728.00
2023-04-29T03:22:31.369Z,94726.00
2023-04-29T03:23:31.402Z,94723.00
2023-04-29T03:24:31.460Z,94721.00
2023-04-29T03:25:31.458Z,94721.00
2023-04-29T03:26:31.482Z,94721.00
2023-04-29T03:27:31.528Z,94717.00
2023-04-29T03:28:31.547Z,94715.00
2023-04-29T03:29:31.568Z,94713.00
2023-04-29T03:30:31.653Z,94715.00
2023-04-29T03:31:31.647Z,94713.00
2023-04-29T03:32:31.706Z,94713.00
2023-04-29T03:33:31.731Z,94717.00
2023-04-29T03:34:31.743Z,94717.00
2023-04-29T03:35:31.803Z,94717.00
2023-04-29T03:36:31.785Z,94717.00
2023-04-29T03:37:31.856Z,94721.00
2023-04-29T03:38:31.872Z,94723.00
2023-04-29T03:39:31.921Z,94725.00
2023-04-29T03:40:31.939Z,94726.00
2023-04-29T03:41:31.948Z,94726.00
2023-04-29T03:42:31.987Z,94726.00
2023-04-29T03:43:31.980Z,94728.00
2023-04-29T03:44:32.012Z,94732.00
2023-04-29T03:45:32.079Z,94730.00
2023-04-29T03:46:32.155Z,94732.00
2023-04-29T03:47:32.186Z,94728.00
2023-04-29T03:48:32.191Z,94725.00
2023-04-29T03:49:32.186Z,94719.00
2023-04-29T03:50:32.238Z,94721.00
2023-04-29T03:51:32.265Z,94715.00
2023-04-29T03:52:32.281Z,94715.00
2023-04-29T03:53:32.370Z,94711.00
2023-04-29T03:54:32.331Z,94711.00
2023-04-29T03:55:32.375Z,94711.00
2023-04-29T03:56:32.423Z,94715.00
2023-04-29T03:57:32.455Z,94717.00
2023-04-29T03:58:32.457Z,94715.00
2023-04-29T03:59:32.494Z,94717.00
2023-04-29T04:00:32.557Z,94717.00
2023-04-29T04:01:32.607Z,94717.00
2023-04-29T04:02:32.761Z,94721.00
2023-04-29T04:03:32.821Z,94719.00
2023-04-29T04:04:32.995Z,94721.00
2023-04-29T04:05:32.725Z,94721.00
2023-04-29T04:06:32.753Z,94719.00
2023-04-29T04:07:32.777Z,94719.00
2023-04-29T04:08:32.833Z,94723.00
2023-04-29T04:09:32.850Z,94721.00
2023-04-29T04:10:32.903Z,94719.00
2023-04-29T04:11:32.908Z,94719.00
2023-04-29T04:12:32.963Z,94715.00
2023-04-29T04:13:32.966Z,94715.00
2023-04-29T04:14:32.997Z,94715.00
2023-04-29T04:15:33.021Z,94717.00
2023-04-29T04:16:33.213Z,94717.00
2023-04-29T04:17:33.155Z,94717.00
2023-04-29T04:18:33.149Z,94721.00
2023-04-29T04:19:33.154Z,94721.00
2023-04-29T04:20:33.221Z,94721.00
2023-04-29T04:21:33.239Z,94719.00
2023-04-29T04:22:33.281Z,94719.00
2023-04-29T04:23:33.293Z,94717.00
2023-04-29T04:24:33.307Z,94719.00
2023-04-29T04:25:33.319Z,94721.00
2023-04-29T04:26:33.369Z,94723.00
2023-04-29T04:27:33.447Z,94726.00
2023-04-29T04:28:33.417Z,94728.00
2023-04-29T04:29:33.425Z,94730.00
2023-04-29T04:30:33.429Z,94736.00
2023-04-29T04:31:33.590Z,94738.00
2023-04-29T04:32:33.540Z,94736.00
2023-04-29T04:33:33.525Z,94740.00
2023-04-29T04:34:33.575Z,94738.00
2023-04-29T04:35:33.573Z,94742.00
2023-04-29T04:36:33.618Z,94744.00
2023-04-29T04:37:33.657Z,94744.00
2023-04-29T04:38:33.690Z,94742.00
2023-04-29T04:39:33.711Z,94740.00
2023-04-29T04:40:40.541Z,94742.00
2023-04-29T04:41:33.694Z,94742.00
2023-04-29T04:42:33.689Z,94742.00
2023-04-29T04:43:33.685Z,94742.00
2023-04-29T04:44:33.770Z,94742.00
2023-04-29T04:45:33.740Z,94744.00
2023-04-29T04:46:33.661Z,94746.00
2023-04-29T04:47:33.728Z,94742.00
2023-04-29T04:48:33.654Z,94744.00
2023-04-29T04:49:33.682Z,94744.00
2023-04-29T04:50:33.645Z,94744.00
2023-04-29T04:51:33.659Z,94744.00
2023-04-29T04:52:33.646Z,94742.00
2023-04-29T04:53:33.594Z,94742.00
2023-04-29T04:54:33.605Z,94742.00
2023-04-29T04:55:33.635Z,94742.00
2023-04-29T04:56:33.623Z,94740.00
2023-04-29T04:57:33.615Z,94740.00
2023-04-29T04:58:33.596Z,94740.00
2023-04-29T04:59:33.595Z,94742.00
2023-04-29T05:00:33.549Z,94742.00
2023-04-29T05:01:33.604Z,94744.00
2023-04-29T05:02:33.735Z,94748.00
2023-04-29T05:03:33.875Z,94748.00
2023-04-29T05:04:33.587Z,94746.00
2023-04-29T05:05:33.575Z,94744.00
2023-04-29T05:06:33.548Z,94746.00
2023-04-29T05:07:33.562Z,94746.00
2023-04-29T05:08:33.555Z,94746.00
2023-04-29T05:09:33.509Z,94744.00
2023-04-29T05:10:33.504Z,94744.00
2023-04-29T05:11:33.507Z,94744.00
2023-04-29T05:12:33.552Z,94740.00
2023-04-29T05:13:33.511Z,94742.00
2023-04-29T05:14:33.463Z,94742.00
2023-04-29T05:15:33.509Z,94746.00
2023-04-29T05:16:33.526Z,94744.00
2023-04-29T05:17:33.470Z,94746.00
2023-04-29T05:18:33.434Z,94746.00
2023-04-29T05:19:33.451Z,94744.00
2023-04-29T05:20:33.427Z,94746.00
2023-04-29T05:21:33.426Z,94746.00
2023-04-29T05:22:33.454Z,94746.00
2023-04-29T05:23:33.461Z,94744.00
2023-04-29T05:24:33.388Z,94744.00
2023-04-29T05:25:33.402Z,94742.00
2023-04-29T05:26:33.395Z,94744.00
2023-04-29T05:27:33.413Z,94746.00
2023-04-29T05:28:33.393Z,94748.00
2023-04-29T05:29:33.354Z,94746.00
2023-04-29T05:30:33.352Z,94754.00
2023-04-29T05:31:33.420Z,94754.00
2023-04-29T05:32:33.403Z,94754.00
2023-04-29T05:33:33.375Z,94746.00
2023-04-29T05:34:33.356Z,94750.00
2023-04-29T05:35:33.344Z,94750.00
2023-04-29T05:36:33.359Z,94752.00
2023-04-29T05:37:33.360Z,94756.00
2023-04-29T05:38:33.287Z,94758.00
2023-04-29T05:39:33.322Z,94756.00
2023-04-29T05:40:33.288Z,94756.00
2023-04-29T05:41:33.285Z,94758.00
2023-04-29T05:42:33.287Z,94752.00
2023-04-29T05:43:33.325Z,94752.00
2023-04-29T05:44:33.314Z,94746.00
2023-04-29T05:45:33.340Z,94748.00
2023-04-29T05:46:33.439Z,94744.00
2023-04-29T05:47:33.404Z,94746.00
2023-04-29T05:48:33.379Z,94738.00
2023-04-29T05:49:33.448Z,94738.00
2023-04-29T05:50:33.394Z,94740.00
2023-04-29T05:51:33.438Z,94742.00
2023-04-29T05:52:33.444Z,94746.00
2023-04-29T05:53:33.487Z,94750.00
2023-04-29T05:54:33.467Z,94750.00
2023-04-29T05:55:33.442Z,94750.00
2023-04-29T05:56:33.478Z,94750.00
2023-04-29T05:57:33.493Z,94748.00
2023-04-29T05:58:33.481Z,94746.00
2023-04-29T05:59:33.479Z,94746.00
2023-04-29T06:00:33.486Z,94744.00
2023-04-29T06:01:33.497Z,94748.00
2023-04-29T06:02:35.893Z,94748.00
2023-04-29T06:03:34.676Z,94750.00
2023-04-29T06:04:33.675Z,94750.00
2023-04-29T06:05:34.008Z,94750.00
2023-04-29T06:06:33.617Z,94752.00
2023-04-29T06:07:33.484Z,94756.00
2023-04-29T06:08:33.482Z,94754.00
2023-04-29T06:09:33.476Z,94758.00
2023-04-29T06:10:33.504Z,94760.00
2023-04-29T06:11:33.428Z,94758.00
2023-04-29T06:12:33.468Z,94762.00
2023-04-29T06:13:33.437Z,94760.00
2023-04-29T06:14:33.415Z,94760.00
2023-04-29T06:15:33.440Z,94758.00
2023-04-29T06:16:33.441Z,94760.00
2023-04-29T06:17:33.426Z,94758.00
2023-04-29T06:18:33.439Z,94760.00
2023-04-29T06:19:33.431Z,94760.00
2023-04-29T06:20:34.897Z,94764.00
2023-04-29T06:21:33.371Z,94766.00
2023-04-29T06:22:33.407Z,94762.00
2023-04-29T06:23:33.402Z,94764.00
2023-04-29T06:24:33.367Z,94762.00
2023-04-29T06:25:33.313Z,94764.00
2023-04-29T06:26:33.368Z,94762.00
2023-04-29T06:27:33.384Z,94762.00
2023-04-29T06:28:33.374Z,94758.00
2023-04-29T06:29:33.307Z,94756.00
2023-04-29T06:30:33.328Z,94760.00
2023-04-29T06:31:33.337Z,94760.00
2023-04-29T06:32:33.351Z,94760.00
2023-04-29T06:33:33.302Z,94762.00
2023-04-29T06:34:33.295Z,94762.00
2023-04-29T06:35:33.337Z,94764.00
2023-04-29T06:36:33.308Z,94764.00
2023-04-29T06:37:34.100Z,94764.00
2023-04-29T06:38:33.288Z,94768.00
2023-04-29T06:39:33.291Z,94768.00
2023-04-29T06:40:33.263Z,94764.00
2023-04-29T06:41:33.280Z,94762.00
2023-04-29T06:42:33.314Z,94762.00
2023-04-29T06:43:33.291Z,94762.00
2023-04-29T06:44:33.233Z,94760.00
2023-04-29T06:45:33.219Z,94764.00
2023-04-29T06:46:33.217Z,94764.00
2023-04-29T06:47:33.248Z,94764.00
2023-04-29T06:48:33.234Z,94760.00
2023-04-29T06:49:33.185Z,94754.00
2023-04-29T06:50:33.191Z,94756.00
2023-04-29T06:51:33.158Z,94756.00
2023-04-29T06:52:33.189Z,94756.00
2023-04-29T06:53:33.143Z,94758.00
2023-04-29T06:54:33.186Z,94758.00
2023-04-29T06:55:33.158Z,94756.00
2023-04-29T06:56:33.172Z,94754.00
2023-04-29T06:57:33.176Z,94756.00
2023-04-29T06:58:33.241Z,94754.00
2023-04-29T06:59:33.217Z,94754.00
2023-04-29T07:00:33.212Z,94752.00
2023-04-29T07:01:33.242Z,94752.00
2023-04-29T07:02:33.279Z,94754.00
2023-04-29T07:03:33.341Z,94754.00
2023-04-29T07:04:33.240Z,94754.00
2023-04-29T07:05:33.265Z,94758.00
2023-04-29T07:06:33.276Z,94756.00
2023-04-29T07:07:33.313Z,94758.00
2023-04-29T07:08:33.445Z,94758.00
2023-04-29T07:09:33.419Z,94756.00
2023-04-29T07:10:33.491Z,94758.00
2023-04-29T07:11:33.616Z,94756.00
2023-04-29T07:12:33.644Z,94750.00
2023-04-29T07:13:33.655Z,94752.00
2023-04-29T07:14:33.707Z,94750.00
2023-04-29T07:15:33.754Z,94750.00
2023-04-29T07:16:33.787Z,94748.00
2023-04-29T07:17:33.883Z,94748.00
2023-04-29T07:18:33.888Z,94748.00
2023-04-29T07:19:33.952Z,94750.00
2023-04-29T07:20:33.968Z,94756.00
2023-04-29T07:21:34.015Z,94750.00
2023-04-29T07:22:34.095Z,94752.00
2023-04-29T07:23:34.109Z,94750.00
2023-04-29T07:24:34.162Z,94752.00
2023-04-29T07:25:34.217Z,94750.00
2023-04-29T07:26:34.221Z,94750.00
2023-04-29T07:27:34.300Z,94752.00
2023-04-29T07:28:34.260Z,94746.00
2023-04-29T07:29:34.314Z,94748.00
2023-04-29T07:30:34.373Z,94748.00
2023-04-29T07:31:35.419Z,94746.00
2023-04-29T07:32:34.398Z,94748.00
2023-04-29T07:33:34.334Z,94748.00
2023-04-29T07:34:34.332Z,94746.00
2023-04-29T07:35:34.314Z,94744.00
2023-04-29T07:36:34.344Z,94740.00
2023-04-29T07:37:34.363Z,94744.00
2023-04-29T07:38:34.316Z,94742.00
2023-04-29T07:39:34.311Z,94742.00
2023-04-29T07:40:34.326Z,94742.00
2023-04-29T07:41:34.298Z,94738.00
2023-04-29T07:42:34.309Z,94736.00
2023-04-29T07:43:34.319Z,94732.00
2023-04-29T07:44:34.269Z,94732.00
2023-04-29T07:45:34.259Z,94728.00
2023-04-29T07:46:34.281Z,94728.00
2023-04-29T07:47:34.339Z,94726.00
2023-04-29T07:48:34.288Z,94725.00
2023-04-29T07:49:34.251Z,94726.00
2023-04-29T07:50:34.205Z,94726.00
2023-04-29T07:51:34.268Z,94732.00
2023-04-29T07:52:34.250Z,94732.00
2023-04-29T07:53:34.224Z,94732.00
2023-04-29T07:54:34.222Z,94730.00
2023-04-29T07:55:34.182Z,94730.00
2023-04-29T07:56:34.150Z,94728.00
2023-04-29T07:57:34.157Z,94730.00
2023-04-29T07:58:34.208Z,94728.00
2023-04-29T07:59:34.217Z,94728.00
2023-04-29T08:00:34.172Z,94728.00
2023-04-29T08:01:34.192Z,94728.00
2023-04-29T08:02:34.300Z,94721.00
2023-04-29T08:03:34.279Z,94721.00
2023-04-29T08:04:34.234Z,94721.00
2023-04-29T08:05:34.525Z,94721.00
2023-04-29T08:06:34.118Z,94723.00
2023-04-29T08:07:34.108Z,94723.00
2023-04-29T08:08:34.115Z,94723.00
2023-04-29T08:09:34.102Z,94723.00
2023-04-29T08:10:34.124Z,94721.00
2023-04-29T08:11:34.064Z,94717.00
2023-04-29T08:12:34.104Z,94717.00
2023-04-29T08:13:34.069Z,94717.00
2023-04-29T08:14:34.068Z,94721.00
2023-04-29T08:15:34.053Z,94719.00
2023-04-29T08:16:34.107Z,94719.00
2023-04-29T08:17:34.105Z,94719.00
2023-04-29T08:18:34.137Z,94717.00
2023-04-29T08:19:34.058Z,94715.00
2023-04-29T08:20:34.060Z,94711.00
2023-04-29T08:21:33.999Z,94711.00
2023-04-29T08:22:34.002Z,94709.00
2023-04-29T08:23:34.001Z,94707.00
2023-04-29T08:24:33.975Z,94705.00
2023-04-29T08:25:33.966Z,94707.00
2023-04-29T08:26:33.993Z,94705.00
2023-04-29T08:27:33.983Z,94703.00
2023-04-29T08:28:33.995Z,94705.00
2023-04-29T08:29:33.958Z,94705.00
2023-04-29T08:30:33.967Z,94705.00
2023-04-29T08:31:34.052Z,94707.00
2023-04-29T08:32:34.009Z,94705.00
2023-04-29T08:33:33.941Z,94705.00
2023-04-29T08:34:34.020Z,94707.00
2023-04-29T08:35:33.901Z,94707.00
2023-04-29T08:36:33.943Z,94705.00
2023-04-29T08:37:33.910Z,94705.00
2023-04-29T08:38:33.923Z,94707.00
2023-04-29T08:39:33.929Z,94705.00
2023-04-29T08:40:33.870Z,94703.00
2023-04-29T08:41:33.884Z,94707.00
2023-04-29T08:42:33.889Z,94705.00
2023-04-29T08:43:33.903Z,94701.00
2023-04-29T08:44:33.905Z,94703.00
2023-04-29T08:45:33.953Z,94703.00
2023-04-29T08:46:33.878Z,94701.00
2023-04-29T08:47:34.028Z,94701.00
2023-04-29T08:48:34.236Z,94701.00
2023-04-29T08:49:33.942Z,94701.00
2023-04-29T08:50:33.956Z,94701.00
2023-04-29T08:51:33.965Z,94701.00
2023-04-29T08:52:33.961Z,94693.00
2023-04-29T08:53:33.918Z,94693.00
2023-04-29T08:54:33.906Z,94693.00
2023-04-29T08:55:33.914Z,94691.00
2023-04-29T08:56:33.918Z,94691.00
2023-04-29T08:57:33.945Z,94625.00
2023-04-29T08:58:33.897Z,94646.00
2023-04-29T08:59:33.956Z,94646.00
2023-04-29T09:00:33.944Z,94648.00
2023-04-29T09:01:34.019Z,94648.00
2023-04-29T09:02:33.979Z,94648.00
2023-04-29T09:03:34.006Z,94652.00
2023-04-29T09:04:33.989Z,94644.00
2023-04-29T09:05:33.952Z,94646.00
2023-04-29T09:06:33.945Z,94648.00
2023-04-29T09:07:33.904Z,94644.00
2023-04-29T09:08:33.913Z,94642.00
2023-04-29T09:09:33.925Z,94642.00
2023-04-29T09:10:33.927Z,94633.00
2023-04-29T09:11:34.031Z,94633.00
2023-04-29T09:12:33.992Z,94633.00
2023-04-29T09:13:33.957Z,94631.00
2023-04-29T09:14:33.919Z,94640.00
2023-04-29T09:15:34.013Z,94631.00
2023-04-29T09:16:34.109Z,94631.00
2023-04-29T09:17:34.014Z,94631.00
2023-04-29T09:18:34.041Z,94633.00
2023-04-29T09:19:33.986Z,94631.00
2023-04-29T09:20:33.990Z,94629.00
2023-04-29T09:21:33.986Z,94627.00
2023-04-29T09:22:34.005Z,94625.00
2023-04-29T09:23:33.996Z,94627.00
2023-04-29T09:24:34.001Z,94623.00
2023-04-29T09:25:34.026Z,94625.00
2023-04-29T09:26:33.974Z,94623.00
2023-04-29T09:27:33.983Z,94621.00
2023-04-29T09:28:34.005Z,94625.00
2023-04-29T09:29:34.052Z,94623.00
2023-04-29T09:30:34.001Z,94621.00
2023-04-29T09:31:34.064Z,94619.00
2023-04-29T09:32:34.033Z,94617.00
2023-04-29T09:33:34.084Z,94617.00
2023-04-29T09:34:34.095Z,94617.00
2023-04-29T09:35:34.145Z,94611.00
2023-04-29T09:36:34.175Z,94648.00
2023-04-29T09:37:34.216Z,94593.00
2023-04-29T09:38:34.228Z,94599.00
2023-04-29T09:39:34.284Z,94601.00
2023-04-29T09:40:43.524Z,94601.00
2023-04-29T09:41:43.205Z,94605.00
2023-04-29T09:42:34.242Z,94607.00
2023-04-29T09:44:53.321Z,94650.00
2023-04-29T09:45:53.141Z,94648.00
2023-04-29T09:46:53.044Z,94648.00
2023-04-29T09:47:53.023Z,94646.00
2023-04-29T09:48:53.078Z,94646.00
2023-04-29T09:49:52.990Z,94644.00
2023-04-29T09:50:53.025Z,94648.00
2023-04-29T09:51:52.999Z,94644.00
2023-04-29T09:52:53.005Z,94642.00
2023-04-29T09:53:53.258Z,94642.00
2023-04-29T09:54:53.192Z,94642.00
2023-04-29T10:00:27.368Z,94629.00
2023-04-29T10:01:27.547Z,94631.00
2023-04-29T10:02:27.542Z,94631.00
2023-04-29T10:03:27.475Z,94629.00
2023-04-29T10:04:27.533Z,94627.00
2023-04-29T10:05:27.596Z,94625.00
2023-04-29T10:06:27.562Z,94625.00
2023-04-29T10:07:27.623Z,94623.00
2023-04-29T10:08:27.633Z,94623.00
2023-04-29T10:09:27.617Z,94623.00
2023-04-29T10:10:28.930Z,94623.00
2023-04-29T10:11:27.735Z,94621.00
2023-04-29T10:12:27.708Z,94623.00
2023-04-29T10:13:27.809Z,94625.00
2023-04-29T10:14:27.779Z,94627.00
2023-04-29T10:15:27.868Z,94627.00
2023-04-29T10:16:27.970Z,94623.00
2023-04-29T10:17:27.937Z,94619.00
2023-04-29T10:18:28.037Z,94619.00
2023-04-29T10:19:28.051Z,94617.00
2023-04-29T10:20:28.105Z,94619.00
2023-04-29T10:21:28.143Z,94615.00
2023-04-29T10:22:28.227Z,94613.00
2023-04-29T10:23:28.232Z,94615.00
2023-04-29T10:24:28.262Z,94615.00
2023-04-29T10:25:28.330Z,94615.00
2023-04-29T10:26:28.386Z,94613.00
2023-04-29T10:27:28.469Z,94611.00
2023-04-29T10:28:28.471Z,94609.00
2023-04-29T10:29:28.516Z,94609.00
2023-04-29T10:30:28.578Z,94605.00
2023-04-29T10:31:28.695Z,94603.00
2023-04-29T10:32:30.555Z,94601.00
2023-04-29T10:33:29.753Z,94601.00
2023-04-29T10:34:28.643Z,94599.00
2023-04-29T10:35:28.616Z,94595.00
2023-04-29T10:36:28.650Z,94597.00
2023-04-29T10:37:28.588Z,94593.00
2023-04-29T10:38:28.639Z,94593.00
2023-04-29T10:39:28.647Z,94589.00
2023-04-29T10:40:28.599Z,94587.00
2023-04-29T10:41:28.657Z,94585.00
2023-04-29T10:42:28.758Z,94583.00
2023-04-29T10:43:28.794Z,94581.00
2023-04-29T10:44:28.794Z,94578.00
2023-04-29T10:45:28.927Z,94578.00
2023-04-29T10:46:29.131Z,94576.00
2023-04-29T10:47:29.083Z,94574.00
2023-04-29T10:48:29.117Z,94574.00
2023-04-29T10:49:29.127Z,94570.00
2023-04-29T10:50:29.199Z,94570.00
2023-04-29T10:51:29.268Z,94570.00
2023-04-29T10:52:29.337Z,94568.00
2023-04-29T10:53:29.398Z,94564.00
2023-04-29T10:54:29.476Z,94562.00
2023-04-29T10:55:29.529Z,94560.00
2023-04-29T10:56:29.573Z,94558.00
2023-04-29T10:57:29.643Z,94554.00
2023-04-29T10:58:29.659Z,94554.00
2023-04-29T10:59:29.807Z,94554.00
2023-04-29T11:00:29.780Z,94554.00
2023-04-29T11:01:29.920Z,94554.00
2023-04-29T11:02:29.947Z,94554.00
2023-04-29T11:03:30.087Z,94552.00
2023-04-29T11:04:30.088Z,94550.00
2023-04-29T11:05:30.102Z,94550.00
2023-04-29T11:06:30.155Z,94548.00
2023-04-29T11:07:30.168Z,94546.00
2023-04-29T11:08:30.286Z,94548.00
2023-04-29T11:09:30.363Z,94546.00
2023-04-29T11:10:30.405Z,94546.00
2023-04-29T11:11:30.412Z,94546.00
2023-04-29T11:12:30.511Z,94546.00
2023-04-29T11:13:30.735Z,94542.00
2023-04-29T11:14:30.579Z,94542.00
2023-04-29T11:15:30.636Z,94544.00
2023-04-29T11:16:30.861Z,94542.00
2023-04-29T11:17:30.788Z,94544.00
2023-04-29T11:18:30.821Z,94544.00
2023-04-29T11:19:30.866Z,94546.00
2023-04-29T11:20:30.908Z,94544.00
2023-04-29T11:21:31.020Z,94546.00
2023-04-29T11:22:31.097Z,94548.00
2023-04-29T11:23:31.125Z,94548.00
2023-04-29T11:24:31.153Z,94548.00
2023-04-29T11:25:31.223Z,94546.00
2023-04-29T11:26:31.310Z,94546.00
2023-04-29T11:27:31.336Z,94544.00
2023-04-29T11:28:31.405Z,94544.00
2023-04-29T11:29:31.468Z,94548.00
2023-04-29T11:30:31.514Z,94546.00
2023-04-29T11:31:31.562Z,94546.00
2023-04-29T11:32:31.714Z,94544.00
2023-04-29T11:33:31.717Z,94546.00
2023-04-29T11:34:31.718Z,94548.00
2023-04-29T11:35:31.807Z,94552.00
2023-04-29T11:36:31.835Z,94558.00
2023-04-29T11:37:32.014Z,94562.00
2023-04-29T11:38:31.984Z,94566.00
2023-04-29T11:39:32.022Z,94570.00
2023-04-29T11:40:32.060Z,94568.00
2023-04-29T11:41:32.160Z,94570.00
2023-04-29T11:42:32.253Z,94568.00
2023-04-29T11:43:32.305Z,94570.00
2023-04-29T11:44:32.386Z,94578.00
2023-04-29T11:45:32.373Z,94570.00
2023-04-29T11:46:32.490Z,94578.00
2023-04-29T11:47:32.567Z,94578.00
2023-04-29T11:48:32.568Z,94578.00
2023-04-29T11:49:32.542Z,94576.00
2023-04-29T11:50:32.613Z,94578.00